sensor_id;sensor_type;location;lat;lon;timestamp;P1;durP1;ratioP1;P2;durP2;ratioP2
7160;SDS011;3622;53.576;9.978;2023-03-23T00:01:25;7.90;;;6.20;;
7160;SDS011;3622;53.576;9.978;2023-03-23T00:03:54;10.43;;;6.83;;
7160;SDS011;3622;53.576;9.978;2023-03-23T00:06:25;11.90;;;6.90;;
7160;SDS011;3622;53.576;9.978;2023-03-23T00:08:52;11.53;;;7.27;;
7160;SDS011;3622;53.576;9.978;2023-03-23T00:11:24;9.53;;;7.30;;
7160;SDS011;3622;53.576;9.978;2023-03-23T00:13:53;13.23;;;8.93;;
7160;SDS011;3622;53.576;9.978;2023-03-23T00:16:20;10.67;;;7.50;;
7160;SDS011;3622;53.576;9.978;2023-03-23T00:18:53;21.20;;;11.50;;
7160;SDS011;3622;53.576;9.978;2023-03-23T00:21:20;14.27;;;8.97;;
7160;SDS011;3622;53.576;9.978;2023-03-23T00:23:50;9.90;;;8.13;;
7160;SDS011;3622;53.576;9.978;2023-03-23T00:26:16;12.10;;;8.23;;
7160;SDS011;3622;53.576;9.978;2023-03-23T00:28:42;13.50;;;8.00;;
7160;SDS011;3622;53.576;9.978;2023-03-23T00:31:08;15.87;;;9.00;;
7160;SDS011;3622;53.576;9.978;2023-03-23T00:33:35;15.93;;;9.70;;
7160;SDS011;3622;53.576;9.978;2023-03-23T00:36:09;12.83;;;9.07;;
7160;SDS011;3622;53.576;9.978;2023-03-23T00:38:35;17.30;;;9.67;;
7160;SDS011;3622;53.576;9.978;2023-03-23T00:41:01;13.83;;;9.97;;
7160;SDS011;3622;53.576;9.978;2023-03-23T00:43:27;21.23;;;10.80;;
7160;SDS011;3622;53.576;9.978;2023-03-23T00:45:54;17.20;;;10.60;;
7160;SDS011;3622;53.576;9.978;2023-03-23T00:48:21;15.97;;;10.30;;
7160;SDS011;3622;53.576;9.978;2023-03-23T00:50:47;14.47;;;9.57;;
7160;SDS011;3622;53.576;9.978;2023-03-23T00:53:14;16.03;;;9.60;;
7160;SDS011;3622;53.576;9.978;2023-03-23T00:55:43;17.17;;;10.60;;
7160;SDS011;3622;53.576;9.978;2023-03-23T00:58:10;14.90;;;10.03;;
7160;SDS011;3622;53.576;9.978;2023-03-23T01:00:36;14.50;;;9.63;;
7160;SDS011;3622;53.576;9.978;2023-03-23T01:03:02;13.40;;;9.67;;
7160;SDS011;3622;53.576;9.978;2023-03-23T01:05:29;13.87;;;9.63;;
7160;SDS011;3622;53.576;9.978;2023-03-23T01:08:00;14.30;;;9.00;;
7160;SDS011;3622;53.576;9.978;2023-03-23T01:10:26;13.57;;;9.60;;
7160;SDS011;3622;53.576;9.978;2023-03-23T01:12:53;15.20;;;9.77;;
7160;SDS011;3622;53.576;9.978;2023-03-23T01:15:19;10.87;;;8.93;;
7160;SDS011;3622;53.576;9.978;2023-03-23T01:17:45;12.50;;;8.47;;
7160;SDS011;3622;53.576;9.978;2023-03-23T01:20:12;14.47;;;8.60;;
7160;SDS011;3622;53.576;9.978;2023-03-23T01:22:39;12.43;;;9.20;;
7160;SDS011;3622;53.576;9.978;2023-03-23T01:25:05;13.50;;;8.97;;
7160;SDS011;3622;53.576;9.978;2023-03-23T01:27:32;12.00;;;9.20;;
7160;SDS011;3622;53.576;9.978;2023-03-23T01:29:57;13.83;;;9.30;;
7160;SDS011;3622;53.576;9.978;2023-03-23T01:32:23;12.27;;;9.20;;
7160;SDS011;3622;53.576;9.978;2023-03-23T01:34:49;10.90;;;8.30;;
7160;SDS011;3622;53.576;9.978;2023-03-23T01:37:15;16.90;;;10.77;;
7160;SDS011;3622;53.576;9.978;2023-03-23T01:39:41;14.00;;;10.17;;
7160;SDS011;3622;53.576;9.978;2023-03-23T01:42:08;13.93;;;10.33;;
7160;SDS011;3622;53.576;9.978;2023-03-23T01:47:00;13.30;;;9.87;;
7160;SDS011;3622;53.576;9.978;2023-03-23T01:49:31;16.43;;;10.77;;
7160;SDS011;3622;53.576;9.978;2023-03-23T01:52:04;15.50;;;10.03;;
7160;SDS011;3622;53.576;9.978;2023-03-23T01:54:31;12.80;;;10.07;;
7160;SDS011;3622;53.576;9.978;2023-03-23T01:57:02;14.73;;;10.57;;
7160;SDS011;3622;53.576;9.978;2023-03-23T01:59:29;17.50;;;10.13;;
7160;SDS011;3622;53.576;9.978;2023-03-23T02:01:56;14.77;;;10.23;;
7160;SDS011;3622;53.576;9.978;2023-03-23T02:04:22;14.20;;;10.20;;
7160;SDS011;3622;53.576;9.978;2023-03-23T02:06:49;13.00;;;9.63;;
7160;SDS011;3622;53.576;9.978;2023-03-23T02:09:15;14.53;;;9.97;;
7160;SDS011;3622;53.576;9.978;2023-03-23T02:11:42;14.00;;;9.90;;
7160;SDS011;3622;53.576;9.978;2023-03-23T02:14:08;15.27;;;9.87;;
7160;SDS011;3622;53.576;9.978;2023-03-23T02:16:36;19.20;;;10.47;;
7160;SDS011;3622;53.576;9.978;2023-03-23T02:19:07;13.93;;;9.67;;
7160;SDS011;3622;53.576;9.978;2023-03-23T02:21:53;15.60;;;9.80;;
7160;SDS011;3622;53.576;9.978;2023-03-23T02:26:51;20.13;;;10.03;;
7160;SDS011;3622;53.576;9.978;2023-03-23T02:29:23;13.63;;;9.70;;
7160;SDS011;3622;53.576;9.978;2023-03-23T02:34:25;17.60;;;9.70;;
7160;SDS011;3622;53.576;9.978;2023-03-23T02:36:56;14.10;;;9.43;;
7160;SDS011;3622;53.576;9.978;2023-03-23T02:39:25;18.17;;;9.93;;
7160;SDS011;3622;53.576;9.978;2023-03-23T02:41:53;14.20;;;9.70;;
7160;SDS011;3622;53.576;9.978;2023-03-23T02:44:20;11.40;;;9.63;;
7160;SDS011;3622;53.576;9.978;2023-03-23T02:46:47;15.50;;;9.60;;
7160;SDS011;3622;53.576;9.978;2023-03-23T02:49:14;11.17;;;8.77;;
7160;SDS011;3622;53.576;9.978;2023-03-23T02:51:40;13.23;;;8.93;;
7160;SDS011;3622;53.576;9.978;2023-03-23T02:54:07;18.47;;;8.83;;
7160;SDS011;3622;53.576;9.978;2023-03-23T02:56:34;12.80;;;9.20;;
7160;SDS011;3622;53.576;9.978;2023-03-23T02:59:01;10.23;;;8.07;;
7160;SDS011;3622;53.576;9.978;2023-03-23T03:03:53;14.33;;;9.47;;
7160;SDS011;3622;53.576;9.978;2023-03-23T03:09:07;11.83;;;9.50;;
7160;SDS011;3622;53.576;9.978;2023-03-23T03:11:35;14.27;;;9.57;;
7160;SDS011;3622;53.576;9.978;2023-03-23T03:14:04;15.40;;;10.57;;
7160;SDS011;3622;53.576;9.978;2023-03-23T03:19:02;11.23;;;9.03;;
7160;SDS011;3622;53.576;9.978;2023-03-23T03:21:29;12.90;;;9.60;;
7160;SDS011;3622;53.576;9.978;2023-03-23T03:23:56;13.20;;;9.53;;
7160;SDS011;3622;53.576;9.978;2023-03-23T03:26:25;12.87;;;9.30;;
7160;SDS011;3622;53.576;9.978;2023-03-23T03:28:52;12.13;;;9.87;;
7160;SDS011;3622;53.576;9.978;2023-03-23T03:31:21;18.63;;;10.20;;
7160;SDS011;3622;53.576;9.978;2023-03-23T03:33:47;16.20;;;9.87;;
7160;SDS011;3622;53.576;9.978;2023-03-23T03:36:32;15.80;;;10.23;;
7160;SDS011;3622;53.576;9.978;2023-03-23T03:39:05;14.00;;;10.03;;
7160;SDS011;3622;53.576;9.978;2023-03-23T03:41:33;14.90;;;9.90;;
7160;SDS011;3622;53.576;9.978;2023-03-23T03:44:00;11.83;;;9.30;;
7160;SDS011;3622;53.576;9.978;2023-03-23T03:46:26;16.20;;;10.00;;
7160;SDS011;3622;53.576;9.978;2023-03-23T03:48:54;14.50;;;10.70;;
7160;SDS011;3622;53.576;9.978;2023-03-23T03:51:21;12.13;;;9.80;;
7160;SDS011;3622;53.576;9.978;2023-03-23T03:53:48;13.03;;;9.67;;
7160;SDS011;3622;53.576;9.978;2023-03-23T03:56:14;13.37;;;10.00;;
7160;SDS011;3622;53.576;9.978;2023-03-23T03:58:40;12.80;;;10.17;;
7160;SDS011;3622;53.576;9.978;2023-03-23T04:01:07;13.17;;;10.53;;
7160;SDS011;3622;53.576;9.978;2023-03-23T04:03:35;13.97;;;9.63;;
7160;SDS011;3622;53.576;9.978;2023-03-23T04:06:01;13.90;;;9.83;;
7160;SDS011;3622;53.576;9.978;2023-03-23T04:08:27;14.60;;;10.23;;
7160;SDS011;3622;53.576;9.978;2023-03-23T04:10:53;22.20;;;10.33;;
7160;SDS011;3622;53.576;9.978;2023-03-23T04:13:19;12.00;;;9.70;;
7160;SDS011;3622;53.576;9.978;2023-03-23T04:15:47;12.43;;;9.97;;
7160;SDS011;3622;53.576;9.978;2023-03-23T04:18:14;14.30;;;10.17;;
7160;SDS011;3622;53.576;9.978;2023-03-23T04:20:42;12.30;;;9.60;;
7160;SDS011;3622;53.576;9.978;2023-03-23T04:23:09;16.77;;;10.80;;
7160;SDS011;3622;53.576;9.978;2023-03-23T04:25:35;14.73;;;11.23;;
7160;SDS011;3622;53.576;9.978;2023-03-23T04:28:02;14.37;;;10.77;;
7160;SDS011;3622;53.576;9.978;2023-03-23T04:30:28;15.00;;;10.73;;
7160;SDS011;3622;53.576;9.978;2023-03-23T04:32:55;12.60;;;10.70;;
7160;SDS011;3622;53.576;9.978;2023-03-23T04:35:22;12.00;;;9.80;;
7160;SDS011;3622;53.576;9.978;2023-03-23T04:37:52;16.20;;;9.87;;
7160;SDS011;3622;53.576;9.978;2023-03-23T04:40:18;12.37;;;9.67;;
7160;SDS011;3622;53.576;9.978;2023-03-23T04:42:45;12.57;;;9.60;;
7160;SDS011;3622;53.576;9.978;2023-03-23T04:45:12;11.77;;;9.90;;
7160;SDS011;3622;53.576;9.978;2023-03-23T04:47:39;11.67;;;9.47;;
7160;SDS011;3622;53.576;9.978;2023-03-23T04:50:09;12.50;;;10.00;;
7160;SDS011;3622;53.576;9.978;2023-03-23T04:52:37;12.00;;;10.13;;
7160;SDS011;3622;53.576;9.978;2023-03-23T04:55:06;10.60;;;8.80;;
7160;SDS011;3622;53.576;9.978;2023-03-23T04:57:33;13.50;;;10.20;;
7160;SDS011;3622;53.576;9.978;2023-03-23T04:59:59;12.00;;;10.40;;
7160;SDS011;3622;53.576;9.978;2023-03-23T05:02:25;17.03;;;10.77;;
7160;SDS011;3622;53.576;9.978;2023-03-23T05:04:55;13.63;;;9.50;;
7160;SDS011;3622;53.576;9.978;2023-03-23T05:07:21;14.43;;;10.37;;
7160;SDS011;3622;53.576;9.978;2023-03-23T05:09:47;12.77;;;10.60;;
7160;SDS011;3622;53.576;9.978;2023-03-23T05:12:14;16.63;;;10.53;;
7160;SDS011;3622;53.576;9.978;2023-03-23T05:14:40;17.50;;;10.73;;
7160;SDS011;3622;53.576;9.978;2023-03-23T05:17:06;17.17;;;10.23;;
7160;SDS011;3622;53.576;9.978;2023-03-23T05:19:32;16.77;;;11.03;;
7160;SDS011;3622;53.576;9.978;2023-03-23T05:21:58;11.87;;;10.03;;
7160;SDS011;3622;53.576;9.978;2023-03-23T05:24:28;15.50;;;12.57;;
7160;SDS011;3622;53.576;9.978;2023-03-23T05:26:56;12.60;;;9.90;;
7160;SDS011;3622;53.576;9.978;2023-03-23T05:29:22;18.17;;;13.70;;
7160;SDS011;3622;53.576;9.978;2023-03-23T05:31:48;14.57;;;10.90;;
7160;SDS011;3622;53.576;9.978;2023-03-23T05:34:14;11.07;;;9.20;;
7160;SDS011;3622;53.576;9.978;2023-03-23T05:36:41;15.97;;;10.87;;
7160;SDS011;3622;53.576;9.978;2023-03-23T05:39:08;10.47;;;9.33;;
7160;SDS011;3622;53.576;9.978;2023-03-23T05:41:34;10.73;;;9.03;;
7160;SDS011;3622;53.576;9.978;2023-03-23T05:44:01;11.63;;;9.20;;
7160;SDS011;3622;53.576;9.978;2023-03-23T05:46:27;22.87;;;15.97;;
7160;SDS011;3622;53.576;9.978;2023-03-23T05:48:53;9.10;;;8.00;;
7160;SDS011;3622;53.576;9.978;2023-03-23T05:51:19;8.77;;;7.90;;
7160;SDS011;3622;53.576;9.978;2023-03-23T05:53:45;10.70;;;8.30;;
7160;SDS011;3622;53.576;9.978;2023-03-23T05:56:12;10.53;;;8.83;;
7160;SDS011;3622;53.576;9.978;2023-03-23T05:58:39;10.47;;;8.17;;
7160;SDS011;3622;53.576;9.978;2023-03-23T06:01:08;8.97;;;7.23;;
7160;SDS011;3622;53.576;9.978;2023-03-23T06:03:34;9.20;;;7.50;;
7160;SDS011;3622;53.576;9.978;2023-03-23T06:06:03;8.50;;;7.07;;
7160;SDS011;3622;53.576;9.978;2023-03-23T06:08:29;12.30;;;8.10;;
7160;SDS011;3622;53.576;9.978;2023-03-23T06:10:55;8.20;;;7.37;;
7160;SDS011;3622;53.576;9.978;2023-03-23T06:13:22;11.67;;;7.27;;
7160;SDS011;3622;53.576;9.978;2023-03-23T06:15:48;11.37;;;7.77;;
7160;SDS011;3622;53.576;9.978;2023-03-23T06:18:15;8.63;;;6.90;;
7160;SDS011;3622;53.576;9.978;2023-03-23T06:20:42;8.23;;;7.07;;
7160;SDS011;3622;53.576;9.978;2023-03-23T06:23:09;7.63;;;6.63;;
7160;SDS011;3622;53.576;9.978;2023-03-23T06:25:35;7.33;;;6.60;;
7160;SDS011;3622;53.576;9.978;2023-03-23T06:28:01;9.87;;;6.60;;
7160;SDS011;3622;53.576;9.978;2023-03-23T06:30:28;6.97;;;6.27;;
7160;SDS011;3622;53.576;9.978;2023-03-23T06:32:54;6.73;;;5.77;;
7160;SDS011;3622;53.576;9.978;2023-03-23T06:35:20;7.50;;;6.73;;
7160;SDS011;3622;53.576;9.978;2023-03-23T06:37:46;6.60;;;6.00;;
7160;SDS011;3622;53.576;9.978;2023-03-23T06:40:13;6.03;;;5.53;;
7160;SDS011;3622;53.576;9.978;2023-03-23T06:42:38;7.80;;;5.57;;
7160;SDS011;3622;53.576;9.978;2023-03-23T06:45:05;5.87;;;5.27;;
7160;SDS011;3622;53.576;9.978;2023-03-23T06:47:32;7.27;;;5.90;;
7160;SDS011;3622;53.576;9.978;2023-03-23T06:49:58;5.80;;;5.30;;
7160;SDS011;3622;53.576;9.978;2023-03-23T06:52:24;5.47;;;5.00;;
7160;SDS011;3622;53.576;9.978;2023-03-23T06:54:51;7.63;;;4.57;;
7160;SDS011;3622;53.576;9.978;2023-03-23T06:57:17;5.63;;;5.10;;
7160;SDS011;3622;53.576;9.978;2023-03-23T06:59:43;6.40;;;4.80;;
7160;SDS011;3622;53.576;9.978;2023-03-23T07:02:11;5.43;;;4.93;;
7160;SDS011;3622;53.576;9.978;2023-03-23T07:04:37;6.17;;;4.30;;
7160;SDS011;3622;53.576;9.978;2023-03-23T07:07:07;4.73;;;4.20;;
7160;SDS011;3622;53.576;9.978;2023-03-23T07:09:33;6.40;;;4.67;;
7160;SDS011;3622;53.576;9.978;2023-03-23T07:11:59;5.63;;;5.10;;
7160;SDS011;3622;53.576;9.978;2023-03-23T07:14:25;6.93;;;5.10;;
7160;SDS011;3622;53.576;9.978;2023-03-23T07:16:51;4.60;;;4.30;;
7160;SDS011;3622;53.576;9.978;2023-03-23T07:19:18;7.50;;;4.30;;
7160;SDS011;3622;53.576;9.978;2023-03-23T07:21:44;4.47;;;4.07;;
7160;SDS011;3622;53.576;9.978;2023-03-23T07:24:13;4.47;;;3.90;;
7160;SDS011;3622;53.576;9.978;2023-03-23T07:26:42;5.60;;;4.53;;
7160;SDS011;3622;53.576;9.978;2023-03-23T07:29:08;4.90;;;4.20;;
7160;SDS011;3622;53.576;9.978;2023-03-23T07:31:34;4.20;;;3.90;;
7160;SDS011;3622;53.576;9.978;2023-03-23T07:34:01;5.13;;;4.70;;
7160;SDS011;3622;53.576;9.978;2023-03-23T07:36:28;5.90;;;4.23;;
7160;SDS011;3622;53.576;9.978;2023-03-23T07:38:54;4.07;;;3.77;;
7160;SDS011;3622;53.576;9.978;2023-03-23T07:41:21;9.10;;;4.43;;
7160;SDS011;3622;53.576;9.978;2023-03-23T07:43:47;4.37;;;4.07;;
7160;SDS011;3622;53.576;9.978;2023-03-23T07:46:13;6.13;;;4.07;;
7160;SDS011;3622;53.576;9.978;2023-03-23T07:48:39;5.20;;;4.63;;
7160;SDS011;3622;53.576;9.978;2023-03-23T07:51:05;6.27;;;4.60;;
7160;SDS011;3622;53.576;9.978;2023-03-23T07:53:32;4.83;;;4.43;;
7160;SDS011;3622;53.576;9.978;2023-03-23T07:55:58;6.70;;;4.90;;
7160;SDS011;3622;53.576;9.978;2023-03-23T07:58:24;5.40;;;5.00;;
7160;SDS011;3622;53.576;9.978;2023-03-23T08:00:51;5.67;;;4.77;;
7160;SDS011;3622;53.576;9.978;2023-03-23T08:03:17;5.70;;;5.30;;
7160;SDS011;3622;53.576;9.978;2023-03-23T08:05:44;6.10;;;5.53;;
7160;SDS011;3622;53.576;9.978;2023-03-23T08:08:10;5.80;;;5.20;;
7160;SDS011;3622;53.576;9.978;2023-03-23T08:10:37;6.17;;;5.57;;
7160;SDS011;3622;53.576;9.978;2023-03-23T08:13:03;6.00;;;5.40;;
7160;SDS011;3622;53.576;9.978;2023-03-23T08:15:30;7.27;;;5.57;;
7160;SDS011;3622;53.576;9.978;2023-03-23T08:17:57;6.40;;;5.90;;
7160;SDS011;3622;53.576;9.978;2023-03-23T08:20:24;6.30;;;5.70;;
7160;SDS011;3622;53.576;9.978;2023-03-23T08:22:54;6.43;;;5.83;;
7160;SDS011;3622;53.576;9.978;2023-03-23T08:25:21;7.10;;;5.80;;
7160;SDS011;3622;53.576;9.978;2023-03-23T08:27:47;9.27;;;6.17;;
7160;SDS011;3622;53.576;9.978;2023-03-23T08:30:14;2.73;;;2.53;;
7160;SDS011;3622;53.576;9.978;2023-03-23T08:32:41;5.47;;;4.97;;
7160;SDS011;3622;53.576;9.978;2023-03-23T08:35:08;3.20;;;3.00;;
7160;SDS011;3622;53.576;9.978;2023-03-23T08:37:35;7.10;;;3.67;;
7160;SDS011;3622;53.576;9.978;2023-03-23T08:40:02;4.13;;;3.30;;
7160;SDS011;3622;53.576;9.978;2023-03-23T08:42:39;3.40;;;3.10;;
7160;SDS011;3622;53.576;9.978;2023-03-23T08:45:06;4.00;;;3.60;;
7160;SDS011;3622;53.576;9.978;2023-03-23T08:47:33;4.83;;;3.47;;
7160;SDS011;3622;53.576;9.978;2023-03-23T08:50:00;5.03;;;2.27;;
7160;SDS011;3622;53.576;9.978;2023-03-23T08:52:27;2.90;;;2.17;;
7160;SDS011;3622;53.576;9.978;2023-03-23T08:54:53;3.33;;;2.07;;
7160;SDS011;3622;53.576;9.978;2023-03-23T08:57:19;2.10;;;2.00;;
7160;SDS011;3622;53.576;9.978;2023-03-23T08:59:45;2.50;;;2.40;;
7160;SDS011;3622;53.576;9.978;2023-03-23T09:02:11;2.40;;;2.20;;
7160;SDS011;3622;53.576;9.978;2023-03-23T09:04:38;7.37;;;2.47;;
7160;SDS011;3622;53.576;9.978;2023-03-23T09:07:04;5.77;;;2.87;;
7160;SDS011;3622;53.576;9.978;2023-03-23T09:09:31;3.10;;;2.70;;
7160;SDS011;3622;53.576;9.978;2023-03-23T09:11:59;2.93;;;2.73;;
7160;SDS011;3622;53.576;9.978;2023-03-23T09:14:25;6.53;;;2.60;;
7160;SDS011;3622;53.576;9.978;2023-03-23T09:16:51;4.47;;;2.60;;
7160;SDS011;3622;53.576;9.978;2023-03-23T09:19:17;4.10;;;2.20;;
7160;SDS011;3622;53.576;9.978;2023-03-23T09:21:43;4.20;;;1.77;;
7160;SDS011;3622;53.576;9.978;2023-03-23T09:24:10;2.10;;;2.00;;
7160;SDS011;3622;53.576;9.978;2023-03-23T09:26:36;2.70;;;2.07;;
7160;SDS011;3622;53.576;9.978;2023-03-23T09:29:02;3.70;;;1.60;;
7160;SDS011;3622;53.576;9.978;2023-03-23T09:31:28;4.00;;;2.07;;
7160;SDS011;3622;53.576;9.978;2023-03-23T09:33:56;3.17;;;1.80;;
7160;SDS011;3622;53.576;9.978;2023-03-23T09:36:23;4.10;;;2.40;;
7160;SDS011;3622;53.576;9.978;2023-03-23T09:38:50;2.47;;;1.93;;
7160;SDS011;3622;53.576;9.978;2023-03-23T09:41:40;4.60;;;1.47;;
7160;SDS011;3622;53.576;9.978;2023-03-23T09:44:24;3.30;;;2.07;;
7160;SDS011;3622;53.576;9.978;2023-03-23T09:50:07;2.47;;;1.83;;
7160;SDS011;3622;53.576;9.978;2023-03-23T09:54:39;5.67;;;2.03;;
7160;SDS011;3622;53.576;9.978;2023-03-23T09:57:11;2.13;;;1.60;;
7160;SDS011;3622;53.576;9.978;2023-03-23T09:59:42;1.30;;;1.17;;
7160;SDS011;3622;53.576;9.978;2023-03-23T10:02:16;8.17;;;1.83;;
7160;SDS011;3622;53.576;9.978;2023-03-23T10:07:13;8.87;;;1.90;;
7160;SDS011;3622;53.576;9.978;2023-03-23T10:09:40;3.60;;;1.67;;
7160;SDS011;3622;53.576;9.978;2023-03-23T10:15:00;5.57;;;1.73;;
7160;SDS011;3622;53.576;9.978;2023-03-23T10:17:39;7.33;;;2.10;;
7160;SDS011;3622;53.576;9.978;2023-03-23T10:23:02;5.97;;;1.93;;
7160;SDS011;3622;53.576;9.978;2023-03-23T10:25:31;9.73;;;2.70;;
7160;SDS011;3622;53.576;9.978;2023-03-23T10:28:05;5.30;;;1.97;;
7160;SDS011;3622;53.576;9.978;2023-03-23T10:30:42;6.73;;;1.93;;
7160;SDS011;3622;53.576;9.978;2023-03-23T10:33:13;5.77;;;3.17;;
7160;SDS011;3622;53.576;9.978;2023-03-23T10:38:09;4.50;;;2.60;;
7160;SDS011;3622;53.576;9.978;2023-03-23T10:40:43;4.17;;;2.20;;
7160;SDS011;3622;53.576;9.978;2023-03-23T10:43:09;5.17;;;2.70;;
7160;SDS011;3622;53.576;9.978;2023-03-23T10:45:35;6.97;;;2.20;;
7160;SDS011;3622;53.576;9.978;2023-03-23T10:48:06;6.57;;;2.13;;
7160;SDS011;3622;53.576;9.978;2023-03-23T10:50:35;3.43;;;1.80;;
7160;SDS011;3622;53.576;9.978;2023-03-23T10:53:03;7.20;;;2.37;;
7160;SDS011;3622;53.576;9.978;2023-03-23T10:55:40;4.27;;;2.50;;
7160;SDS011;3622;53.576;9.978;2023-03-23T10:58:09;6.10;;;2.17;;
7160;SDS011;3622;53.576;9.978;2023-03-23T11:00:45;5.90;;;2.60;;
7160;SDS011;3622;53.576;9.978;2023-03-23T11:05:43;8.43;;;1.63;;
7160;SDS011;3622;53.576;9.978;2023-03-23T11:08:13;5.87;;;2.03;;
7160;SDS011;3622;53.576;9.978;2023-03-23T11:10:40;6.90;;;2.17;;
7160;SDS011;3622;53.576;9.978;2023-03-23T11:13:11;5.97;;;2.37;;
7160;SDS011;3622;53.576;9.978;2023-03-23T11:15:39;10.53;;;2.60;;
7160;SDS011;3622;53.576;9.978;2023-03-23T11:18:47;9.10;;;2.70;;
7160;SDS011;3622;53.576;9.978;2023-03-23T11:20:55;4.23;;;2.03;;
7160;SDS011;3622;53.576;9.978;2023-03-23T11:23:23;6.87;;;2.30;;
7160;SDS011;3622;53.576;9.978;2023-03-23T11:25:54;8.73;;;3.23;;
7160;SDS011;3622;53.576;9.978;2023-03-23T11:28:21;5.97;;;2.27;;
7160;SDS011;3622;53.576;9.978;2023-03-23T11:30:48;9.83;;;2.10;;
7160;SDS011;3622;53.576;9.978;2023-03-23T11:33:14;5.80;;;1.93;;
7160;SDS011;3622;53.576;9.978;2023-03-23T11:35:43;8.50;;;2.73;;
7160;SDS011;3622;53.576;9.978;2023-03-23T11:38:15;11.47;;;2.37;;
7160;SDS011;3622;53.576;9.978;2023-03-23T11:40:44;6.30;;;2.80;;
7160;SDS011;3622;53.576;9.978;2023-03-23T11:43:13;13.30;;;6.60;;
7160;SDS011;3622;53.576;9.978;2023-03-23T11:45:45;7.93;;;3.30;;
7160;SDS011;3622;53.576;9.978;2023-03-23T11:50:48;8.67;;;2.73;;
7160;SDS011;3622;53.576;9.978;2023-03-23T11:58:32;9.90;;;3.40;;
7160;SDS011;3622;53.576;9.978;2023-03-23T12:03:57;10.60;;;3.70;;
7160;SDS011;3622;53.576;9.978;2023-03-23T12:09:24;6.27;;;3.30;;
7160;SDS011;3622;53.576;9.978;2023-03-23T12:17:00;10.23;;;5.30;;
7160;SDS011;3622;53.576;9.978;2023-03-23T12:19:41;9.50;;;3.70;;
7160;SDS011;3622;53.576;9.978;2023-03-23T12:24:59;8.40;;;4.70;;
7160;SDS011;3622;53.576;9.978;2023-03-23T12:30:16;7.70;;;4.17;;
7160;SDS011;3622;53.576;9.978;2023-03-23T12:37:50;6.33;;;4.40;;
7160;SDS011;3622;53.576;9.978;2023-03-23T12:43:05;4.37;;;3.53;;
7160;SDS011;3622;53.576;9.978;2023-03-23T12:45:58;6.13;;;4.07;;
7160;SDS011;3622;53.576;9.978;2023-03-23T12:48:29;6.93;;;4.00;;
7160;SDS011;3622;53.576;9.978;2023-03-23T12:51:13;10.37;;;4.07;;
7160;SDS011;3622;53.576;9.978;2023-03-23T12:59:04;5.23;;;3.90;;
7160;SDS011;3622;53.576;9.978;2023-03-23T13:01:35;7.07;;;3.87;;
7160;SDS011;3622;53.576;9.978;2023-03-23T13:06:38;6.60;;;3.67;;
7160;SDS011;3622;53.576;9.978;2023-03-23T13:09:08;8.80;;;3.93;;
7160;SDS011;3622;53.576;9.978;2023-03-23T13:11:37;9.90;;;3.83;;
7160;SDS011;3622;53.576;9.978;2023-03-23T13:17:10;6.43;;;3.60;;
7160;SDS011;3622;53.576;9.978;2023-03-23T13:22:27;5.40;;;3.00;;
7160;SDS011;3622;53.576;9.978;2023-03-23T13:24:58;7.07;;;3.53;;
7160;SDS011;3622;53.576;9.978;2023-03-23T13:27:26;4.60;;;3.13;;
7160;SDS011;3622;53.576;9.978;2023-03-23T13:29:56;5.17;;;2.90;;
7160;SDS011;3622;53.576;9.978;2023-03-23T13:32:28;3.70;;;3.40;;
7160;SDS011;3622;53.576;9.978;2023-03-23T13:34:55;5.20;;;3.77;;
7160;SDS011;3622;53.576;9.978;2023-03-23T13:37:23;4.03;;;3.00;;
7160;SDS011;3622;53.576;9.978;2023-03-23T13:39:52;7.30;;;2.77;;
7160;SDS011;3622;53.576;9.978;2023-03-23T13:42:22;6.33;;;3.90;;
7160;SDS011;3622;53.576;9.978;2023-03-23T13:49:59;6.90;;;3.63;;
7160;SDS011;3622;53.576;9.978;2023-03-23T13:57:49;5.83;;;2.80;;
7160;SDS011;3622;53.576;9.978;2023-03-23T14:00:25;2.60;;;2.40;;
7160;SDS011;3622;53.576;9.978;2023-03-23T14:02:58;1.17;;;1.07;;
7160;SDS011;3622;53.576;9.978;2023-03-23T14:05:29;1.60;;;1.50;;
7160;SDS011;3622;53.576;9.978;2023-03-23T14:08:00;3.00;;;1.10;;
7160;SDS011;3622;53.576;9.978;2023-03-23T14:10:36;2.10;;;1.27;;
7160;SDS011;3622;53.576;9.978;2023-03-23T14:13:04;1.43;;;1.30;;
7160;SDS011;3622;53.576;9.978;2023-03-23T14:15:37;1.70;;;1.60;;
7160;SDS011;3622;53.576;9.978;2023-03-23T14:18:03;1.87;;;1.40;;
7160;SDS011;3622;53.576;9.978;2023-03-23T14:20:31;2.27;;;1.60;;
7160;SDS011;3622;53.576;9.978;2023-03-23T14:22:58;4.30;;;1.60;;
7160;SDS011;3622;53.576;9.978;2023-03-23T14:25:30;1.93;;;1.40;;
7160;SDS011;3622;53.576;9.978;2023-03-23T14:27:57;2.23;;;1.40;;
7160;SDS011;3622;53.576;9.978;2023-03-23T14:30:24;4.00;;;1.83;;
7160;SDS011;3622;53.576;9.978;2023-03-23T14:32:51;2.70;;;2.23;;
7160;SDS011;3622;53.576;9.978;2023-03-23T14:35:26;3.20;;;2.00;;
7160;SDS011;3622;53.576;9.978;2023-03-23T14:37:53;3.07;;;1.83;;
7160;SDS011;3622;53.576;9.978;2023-03-23T14:40:19;3.10;;;1.70;;
7160;SDS011;3622;53.576;9.978;2023-03-23T14:42:45;4.67;;;1.60;;
7160;SDS011;3622;53.576;9.978;2023-03-23T14:45:13;7.43;;;1.43;;
7160;SDS011;3622;53.576;9.978;2023-03-23T14:47:40;2.43;;;2.23;;
7160;SDS011;3622;53.576;9.978;2023-03-23T14:52:55;4.30;;;1.40;;
7160;SDS011;3622;53.576;9.978;2023-03-23T14:55:22;6.57;;;2.17;;
7160;SDS011;3622;53.576;9.978;2023-03-23T14:57:48;4.40;;;1.67;;
7160;SDS011;3622;53.576;9.978;2023-03-23T15:00:15;7.27;;;1.93;;
7160;SDS011;3622;53.576;9.978;2023-03-23T15:02:43;3.07;;;1.70;;
7160;SDS011;3622;53.576;9.978;2023-03-23T15:05:15;2.90;;;2.50;;
7160;SDS011;3622;53.576;9.978;2023-03-23T15:07:42;4.20;;;1.50;;
7160;SDS011;3622;53.576;9.978;2023-03-23T15:10:09;2.70;;;1.83;;
7160;SDS011;3622;53.576;9.978;2023-03-23T15:12:40;3.93;;;1.73;;
7160;SDS011;3622;53.576;9.978;2023-03-23T15:15:13;5.90;;;3.03;;
7160;SDS011;3622;53.576;9.978;2023-03-23T15:17:42;2.53;;;1.90;;
7160;SDS011;3622;53.576;9.978;2023-03-23T15:20:19;4.33;;;1.93;;
7160;SDS011;3622;53.576;9.978;2023-03-23T15:22:47;3.40;;;1.77;;
7160;SDS011;3622;53.576;9.978;2023-03-23T15:27:52;6.20;;;1.70;;
7160;SDS011;3622;53.576;9.978;2023-03-23T15:32:47;3.13;;;1.90;;
7160;SDS011;3622;53.576;9.978;2023-03-23T15:35:15;2.60;;;1.70;;
7160;SDS011;3622;53.576;9.978;2023-03-23T15:37:51;6.27;;;2.80;;
7160;SDS011;3622;53.576;9.978;2023-03-23T15:40:20;4.37;;;2.40;;
7160;SDS011;3622;53.576;9.978;2023-03-23T15:42:47;2.60;;;2.10;;
7160;SDS011;3622;53.576;9.978;2023-03-23T15:45:26;4.60;;;2.97;;
7160;SDS011;3622;53.576;9.978;2023-03-23T15:47:52;4.83;;;2.30;;
7160;SDS011;3622;53.576;9.978;2023-03-23T15:50:20;2.10;;;1.80;;
7160;SDS011;3622;53.576;9.978;2023-03-23T15:52:46;3.60;;;1.80;;
7160;SDS011;3622;53.576;9.978;2023-03-23T15:55:46;2.30;;;2.10;;
7160;SDS011;3622;53.576;9.978;2023-03-23T15:58:08;4.40;;;1.70;;
7160;SDS011;3622;53.576;9.978;2023-03-23T16:00:35;7.00;;;1.80;;
7160;SDS011;3622;53.576;9.978;2023-03-23T16:03:03;1.83;;;1.60;;
7160;SDS011;3622;53.576;9.978;2023-03-23T16:05:30;3.97;;;1.70;;
7160;SDS011;3622;53.576;9.978;2023-03-23T16:07:56;2.57;;;1.63;;
7160;SDS011;3622;53.576;9.978;2023-03-23T16:10:22;2.47;;;2.27;;
7160;SDS011;3622;53.576;9.978;2023-03-23T16:12:48;2.63;;;1.70;;
7160;SDS011;3622;53.576;9.978;2023-03-23T16:15:15;4.03;;;1.47;;
7160;SDS011;3622;53.576;9.978;2023-03-23T16:17:41;5.80;;;1.90;;
7160;SDS011;3622;53.576;9.978;2023-03-23T16:20:17;3.20;;;2.00;;
7160;SDS011;3622;53.576;9.978;2023-03-23T16:22:44;3.10;;;2.70;;
7160;SDS011;3622;53.576;9.978;2023-03-23T16:25:10;4.80;;;2.40;;
7160;SDS011;3622;53.576;9.978;2023-03-23T16:27:37;4.33;;;3.00;;
7160;SDS011;3622;53.576;9.978;2023-03-23T16:30:13;3.37;;;2.50;;
7160;SDS011;3622;53.576;9.978;2023-03-23T16:32:39;2.13;;;1.70;;
7160;SDS011;3622;53.576;9.978;2023-03-23T16:35:05;5.77;;;2.20;;
7160;SDS011;3622;53.576;9.978;2023-03-23T16:37:32;6.77;;;2.23;;
7160;SDS011;3622;53.576;9.978;2023-03-23T16:39:58;4.90;;;1.93;;
7160;SDS011;3622;53.576;9.978;2023-03-23T16:42:24;6.23;;;2.50;;
7160;SDS011;3622;53.576;9.978;2023-03-23T16:44:50;4.03;;;2.67;;
7160;SDS011;3622;53.576;9.978;2023-03-23T16:47:18;4.97;;;2.10;;
7160;SDS011;3622;53.576;9.978;2023-03-23T16:49:47;6.90;;;3.30;;
7160;SDS011;3622;53.576;9.978;2023-03-23T16:52:14;7.87;;;3.03;;